SondeTracker

Meteorological Radiosondes Database

Operations

Sounding was ended - last measurement: 2022-12-07 13:22:47z

MAP
About Radiosonde

Number: D22037068 (22037068)

Launch Site: Davenport [IA] (US)

Type: DFM17

AUX: NO

Frequency: 403.410 MHz

Max Speed: 302 km/h at 10431 m

Average Speed: 140.96 km/h

Max Altitude: 33160 m

Average Ascent Speed: 5.07 m/s

Average Descent Speed: 19.44 m/s

Status: UNKNOWN

Status Changes
Launch Site Type AUX Frequency Status Finder Landing Point Description Changes made by
APRS Statistics

Received Frames: 268

First Frame [UTC]: 2022-12-07 11:34:41z

Last Frame [UTC]: 2022-12-07 13:22:47z

Receivers: KD9IXX, KD9PII, KE0YJJ

Flight Time: 01:48:06 h

Distance From First Measurement: 249.62 km

Nearest City: Michigan City [IN] (US) [27.07 km]

Nearest Hunter: hmarquardt [68.82 km]

Ground Altitude: 175 m

Distance from QTH: 0.00 km

APRS Data
Receiver Number Date/Time [UTC] φ λ Course [°] Speed [km/h] Altitude [m] Description
KD9IXXD220370682022-12-07 13:22:4741.9414-86.97182376746Clb=-8.5m/s t=0.3C h=-1.0% p=-1.0hPa 403.410 MHz Type=DFM17 ser=22037068 Radiosonde
KD9IXXD220370682022-12-07 13:22:1641.9414-86.97182376763Clb=-8.5m/s t=0.3C h=-1.0% p=-1.0hPa 403.410 MHz Type=DFM17 ser=22037068 Radiosonde
KD9IXXD220370682022-12-07 13:21:4541.9417-86.970924261006Clb=-7.5m/s t=0.3C h=-1.0% p=-1.0hPa 403.410 MHz Type=DFM17 ser=22037068 Radiosonde
KD9IXXD220370682022-12-07 13:21:1441.9417-86.970535641263Clb=-8.3m/s t=0.2C h=-1.0% p=-1.0hPa 403.410 MHz Type=DFM17 ser=22037068 Radiosonde
KD9IXXD220370682022-12-07 13:20:4341.9409-86.9703355131514Clb=-7.8m/s t=1.3C h=-1.0% p=-1.0hPa 403.410 MHz Type=DFM17 ser=22037068 Radiosonde
KD9IXXD220370682022-12-07 13:20:1241.9397-86.970618131770Clb=-8.3m/s t=0.6C h=-1.0% p=-1.0hPa 403.410 MHz Type=DFM17 ser=22037068 Radiosonde
KD9IXXD220370682022-12-07 13:19:4141.9387-86.972369302024Clb=-8.6m/s t=0.2C h=-1.0% p=-1.0hPa 403.410 MHz Type=DFM17 ser=22037068 Radiosonde
KD9IXXD220370682022-12-07 13:19:0941.9382-86.97680372296Clb=-8.8m/s t=-1.7C h=-1.0% p=-1.0hPa 403.410 MHz Type=DFM17 ser=22037068 Radiosonde
KD9IXXD220370682022-12-07 13:18:3841.9379-86.980689522553Clb=-8.6m/s t=-2.9C h=-1.0% p=-1.0hPa 403.410 MHz Type=DFM17 ser=22037068 Radiosonde
KD9IXXD220370682022-12-07 13:18:0741.9381-86.987496672816Clb=-8.5m/s t=-3.0C h=-1.0% p=-1.0hPa 403.410 MHz Type=DFM17 ser=22037068 Radiosonde
KD9IXXD220370682022-12-07 13:17:3641.9387-86.995291833076Clb=-8.3m/s t=-4.3C h=-1.0% p=-1.0hPa 403.410 MHz Type=DFM17 ser=22037068 Radiosonde
KD9IXXD220370682022-12-07 13:17:0541.939-87.004393893338Clb=-8.6m/s t=-6.1C h=-1.0% p=-1.0hPa 403.410 MHz Type=DFM17 ser=22037068 Radiosonde
KD9IXXD220370682022-12-07 13:16:3441.9393-87.013888893598Clb=-8.1m/s t=-8.4C h=-1.0% p=-1.0hPa 403.410 MHz Type=DFM17 ser=22037068 Radiosonde
KD9IXXD220370682022-12-07 13:16:0341.9387-87.023180873851Clb=-8.0m/s t=-10.7C h=-1.0% p=-1.0hPa 403.410 MHz Type=DFM17 ser=22037068 Radiosonde
KD9IXXD220370682022-12-07 13:15:3241.9371-87.032377914126Clb=-11.5m/s t=-12.9C h=-1.0% p=-1.0hPa 403.410 MHz Type=DFM17 ser=22037068 Radiosonde
KD9IXXD220370682022-12-07 13:15:0141.9359-87.04281964475Clb=-10.0m/s t=-15.6C h=-1.0% p=-1.0hPa 403.410 MHz Type=DFM17 ser=22037068 Radiosonde
KD9IXXD220370682022-12-07 13:14:3041.935-87.0519851024780Clb=-9.5m/s t=-17.6C h=-1.0% p=-1.0hPa 403.410 MHz Type=DFM17 ser=22037068 Radiosonde
KD9IXXD220370682022-12-07 13:13:5941.9348-87.0639881205068Clb=-9.6m/s t=-19.4C h=-1.0% p=-1.0hPa 403.410 MHz Type=DFM17 ser=22037068 Radiosonde
KD9IXXD220370682022-12-07 13:13:5141.9324-87.0903761445626Clb=-9.2m/s t=-21.5C h=-1.0% p=-1.0hPa 403.410 MHz Type=DFM17 ser=22037068 Radiosonde
KD9IXXD220370682022-12-07 13:13:5041.9294-87.106741565913Clb=-9.3m/s t=-23.5C h=-1.0% p=-1.0hPa 403.410 MHz Type=DFM17 ser=22037068 Radiosonde
KD9IXXD220370682022-12-07 13:13:2941.9257-87.1215711576188Clb=-8.7m/s t=-25.6C h=-1.0% p=-1.0hPa 403.410 MHz Type=DFM17 ser=22037068 Radiosonde
KD9IXXD220370682022-12-07 13:13:0541.9219-87.1378731596457Clb=-8.6m/s t=-28.1C h=-1.0% p=-1.0hPa 403.410 MHz Type=DFM17 ser=22037068 Radiosonde
KD9IXXD220370682022-12-07 13:12:4041.9183-87.1534731656710Clb=-8.5m/s t=-30.3C h=-1.0% p=-1.0hPa 403.410 MHz Type=DFM17 ser=22037068 Radiosonde
KD9IXXD220370682022-12-07 13:12:1341.9141-87.1716691857019Clb=-9.4m/s t=-31.6C h=-1.0% p=-1.0hPa 403.410 MHz Type=DFM17 ser=22037068 Radiosonde
KD9IXXD220370682022-12-07 13:11:4941.9097-87.1899731947321Clb=-9.3m/s t=-34.2C h=-1.0% p=-1.0hPa 403.410 MHz Type=DFM17 ser=22037068 Radiosonde
KD9IXXD220370682022-12-07 13:11:2241.9056-87.2095742027615Clb=-10.0m/s t=-36.7C h=-1.0% p=-1.0hPa 403.410 MHz Type=DFM17 ser=22037068 Radiosonde
KD9IXXD220370682022-12-07 13:10:5541.9014-87.2299762077945Clb=-11.2m/s t=-37.0C h=-1.0% p=-1.0hPa 403.410 MHz Type=DFM17 ser=22037068 Radiosonde
KD9IXXD220370682022-12-07 13:10:2541.8979-87.2522772308241Clb=-8.7m/s t=-37.7C h=-1.0% p=-1.0hPa 403.410 MHz Type=DFM17 ser=22037068 Radiosonde
KD9IXXD220370682022-12-07 13:09:5541.8943-87.2764802338509Clb=-8.8m/s t=-39.6C h=-1.0% p=-1.0hPa 403.410 MHz Type=DFM17 ser=22037068 Radiosonde
KD9IXXD220370682022-12-07 13:09:2241.8915-87.3001822468772Clb=-9.6m/s t=-41.4C h=-1.0% p=-1.0hPa 403.410 MHz Type=DFM17 ser=22037068 Radiosonde
KD9IXXD220370682022-12-07 13:08:4941.8891-87.3252832419128Clb=-11.0m/s t=-43.8C h=-1.0% p=-1.0hPa 403.410 MHz Type=DFM17 ser=22037068 Radiosonde
KD9PIID220370682022-12-07 13:08:1741.8872-87.3497832489523Clb=-17.1m/s t=-46.5C p=-1.0hPa h=-1.0% 403.409 MHz Type=DFM17 ser=22037068 Radiosonde
KD9IXXD220370682022-12-07 13:08:1641.8871-87.3505842529540Clb=-16.3m/s t=-46.6C h=-1.0% p=-1.0hPa 403.410 MHz Type=DFM17 ser=22037068 Radiosonde
KD9IXXD220370682022-12-07 13:07:4441.8845-87.37798328710002Clb=-18.3m/s t=-48.0C h=-1.0% p=-1.0hPa 403.410 MHz Type=DFM17 ser=22037068 Radiosonde
KD9PIID220370682022-12-07 13:07:0441.8826-87.4078629310422Clb=-16.9m/s t=-50.7C p=-1.0hPa h=-1.0% 403.409 MHz Type=DFM17 ser=22037068 Radiosonde
KD9IXXD220370682022-12-07 13:07:0241.8825-87.4098629110456Clb=-17.4m/s t=-50.9C h=-1.0% p=-1.0hPa 403.410 MHz Type=DFM17 ser=22037068 Radiosonde
KD9PIID220370682022-12-07 13:06:2641.8813-87.43678528510980Clb=-20.4m/s t=-53.6C p=-1.0hPa h=-1.0% 403.409 MHz Type=DFM17 ser=22037068 Radiosonde
KD9IXXD220370682022-12-07 13:06:2441.8812-87.43778528511000Clb=-18.8m/s t=-53.6C h=-1.0% p=-1.0hPa 403.410 MHz Type=DFM17 ser=22037068 Radiosonde
KD9PIID220370682022-12-07 13:05:4941.8791-87.4658326111506Clb=-15.5m/s t=-55.0C p=-1.0hPa h=-1.0% 403.410 MHz Type=DFM17 ser=22037068 Radiosonde
KD9IXXD220370682022-12-07 13:05:4841.879-87.46678326311536Clb=-14.9m/s t=-54.9C h=-1.0% p=-1.0hPa 403.410 MHz Type=DFM17 ser=22037068 Radiosonde
KD9PIID220370682022-12-07 13:05:0741.8765-87.49278226712005Clb=-17.3m/s t=-57.1C p=-1.0hPa h=-1.0% 403.409 MHz Type=DFM17 ser=22037068 Radiosonde
KD9IXXD220370682022-12-07 13:05:0241.8764-87.49358326712022Clb=-17.6m/s t=-57.1C h=-1.0% p=-1.0hPa 403.410 MHz Type=DFM17 ser=22037068 Radiosonde
KD9PIID220370682022-12-07 13:04:2541.8748-87.51978724312681Clb=-21.6m/s t=-57.9C p=-1.0hPa h=-1.0% 403.410 MHz Type=DFM17 ser=22037068 Radiosonde
KD9IXXD220370682022-12-07 13:04:2341.8748-87.52138724312724Clb=-20.9m/s t=-58.0C h=-1.0% p=-1.0hPa 403.410 MHz Type=DFM17 ser=22037068 Radiosonde
KD9PIID220370682022-12-07 13:03:4941.8746-87.54298821713325Clb=-20.9m/s t=-58.8C p=-1.0hPa h=-1.0% 403.410 MHz Type=DFM17 ser=22037068 Radiosonde
KD9IXXD220370682022-12-07 13:03:4741.8746-87.54448821913363Clb=-17.3m/s t=-59.1C h=-1.0% p=-1.0hPa 403.410 MHz Type=DFM17 ser=22037068 Radiosonde
KD9PIID220370682022-12-07 13:03:1041.8746-87.56368818014030Clb=-22.5m/s t=-60.3C p=-1.0hPa h=-1.0% 403.410 MHz Type=DFM17 ser=22037068 Radiosonde
KD9IXXD220370682022-12-07 13:03:0841.8745-87.56488817414077Clb=-24.1m/s t=-60.3C h=-1.0% p=-1.0hPa 403.410 MHz Type=DFM17 ser=22037068 Radiosonde
KD9PIID220370682022-12-07 13:02:2841.8737-87.58128216314740Clb=-22.4m/s t=-61.5C p=-1.0hPa h=-1.0% 403.410 MHz Type=DFM17 ser=22037068 Radiosonde
KD9IXXD220370682022-12-07 13:02:2641.8736-87.58238216714786Clb=-23.9m/s t=-61.8C h=-1.0% p=-1.0hPa 403.410 MHz Type=DFM17 ser=22037068 Radiosonde
KD9PIID220370682022-12-07 13:01:4541.8711-87.59757716115508Clb=-27.4m/s t=-63.0C p=-1.0hPa h=-1.0% 403.410 MHz Type=DFM17 ser=22037068 Radiosonde
KD9IXXD220370682022-12-07 13:01:4341.8709-87.59867816115560Clb=-24.7m/s t=-63.0C h=-1.0% p=-1.0hPa 403.410 MHz Type=DFM17 ser=22037068 Radiosonde
KD9PIID220370682022-12-07 13:00:5841.8689-87.61317914116348Clb=-23.9m/s t=-64.0C p=-1.0hPa h=-1.0% 403.410 MHz Type=DFM17 ser=22037068 Radiosonde
KD9IXXD220370682022-12-07 13:00:5641.8688-87.61418113916399Clb=-27.6m/s t=-64.0C h=-1.0% p=-1.0hPa 403.410 MHz Type=DFM17 ser=22037068 Radiosonde
KD9PIID220370682022-12-07 13:00:0241.8664-87.62627614417114Clb=-26.1m/s t=-64.6C p=-1.0hPa h=-1.0% 403.410 MHz Type=DFM17 ser=22037068 Radiosonde
KD9IXXD220370682022-12-07 13:00:0041.8662-87.62717714117168Clb=-28.9m/s t=-64.4C h=-1.0% p=-1.0hPa 403.410 MHz Type=DFM17 ser=22037068 Radiosonde
KD9PIID220370682022-12-07 12:59:3141.8647-87.649213117871Clb=-23.4m/s t=-60.8C p=-1.0hPa h=-1.0% 403.410 MHz Type=DFM17 ser=22037068 Radiosonde
KD9IXXD220370682022-12-07 12:59:2941.8647-87.64099313317917Clb=-22.4m/s t=-60.7C h=-1.0% p=-1.0hPa 403.410 MHz Type=DFM17 ser=22037068 Radiosonde
KD9PIID220370682022-12-07 12:59:0041.8646-87.6518769418594Clb=-21.4m/s t=-61.5C p=-1.0hPa h=-1.0% 403.410 MHz Type=DFM17 ser=22037068 Radiosonde
KD9IXXD220370682022-12-07 12:58:5841.8645-87.6524779118640Clb=-23.8m/s t=-61.7C h=-1.0% p=-1.0hPa 403.410 MHz Type=DFM17 ser=22037068 Radiosonde
KD9PIID220370682022-12-07 12:58:2941.8632-87.6606849619371Clb=-25.1m/s t=-65.6C p=-1.0hPa h=-1.0% 403.410 MHz Type=DFM17 ser=22037068 Radiosonde
KD9IXXD220370682022-12-07 12:58:2741.8631-87.66138310019420Clb=-24.7m/s t=-65.5C h=-1.0% p=-1.0hPa 403.410 MHz Type=DFM17 ser=22037068 Radiosonde
KD9PIID220370682022-12-07 12:57:5841.8593-87.70391079323891Clb=-19.5m/s t=-58.5C p=-1.0hPa h=-1.0% 403.410 MHz Type=DFM17 ser=22037068 Radiosonde
KD9PIID220370682022-12-07 12:57:5741.8605-87.7104873924581Clb=-25.4m/s t=-60.1C p=-1.0hPa h=-1.0% 403.410 MHz Type=DFM17 ser=22037068 Radiosonde
KD9PIID220370682022-12-07 12:57:5541.8603-87.715835725379Clb=-26.1m/s t=-60.1C p=-1.0hPa h=-1.0% 403.410 MHz Type=DFM17 ser=22037068 Radiosonde
KD9PIID220370682022-12-07 12:57:5341.8619-87.72221065026360Clb=-35.3m/s t=-58.1C p=-1.0hPa h=-1.0% 403.410 MHz Type=DFM17 ser=22037068 Radiosonde
KD9IXXD220370682022-12-07 12:57:5241.8619-87.72251035026438Clb=-41.2m/s t=-58.3C h=-1.0% p=-1.0hPa 403.410 MHz Type=DFM17 ser=22037068 Radiosonde
KD9PIID220370682022-12-07 12:57:5141.8627-87.72951117627427Clb=-32.5m/s t=-56.8C p=-1.0hPa h=-1.0% 403.410 MHz Type=DFM17 ser=22037068 Radiosonde
KD9PIID220370682022-12-07 12:57:4941.8636-87.7368928528373Clb=-30.5m/s t=-56.9C p=-1.0hPa h=-1.0% 403.410 MHz Type=DFM17 ser=22037068 Radiosonde
KD9PIID220370682022-12-07 12:57:4741.8627-87.74688712429370Clb=-29.7m/s t=-53.5C p=-1.0hPa h=-1.0% 403.410 MHz Type=DFM17 ser=22037068 Radiosonde
KD9PIID220370682022-12-07 12:57:4541.8629-87.75898311930175Clb=-20.3m/s t=-52.7C p=-1.0hPa h=-1.0% 403.410 MHz Type=DFM17 ser=22037068 Radiosonde
KD9PIID220370682022-12-07 12:57:4041.8626-87.77199313330893Clb=-35.4m/s t=-53.4C p=-1.0hPa h=-1.0% 403.410 MHz Type=DFM17 ser=22037068 Radiosonde
KD9IXXD220370682022-12-07 12:57:3941.8626-87.77288613130962Clb=-33.1m/s t=-53.4C h=-1.0% p=-1.0hPa 403.410 MHz Type=DFM17 ser=22037068 Radiosonde
KD9PIID220370682022-12-07 12:56:5141.8626-87.78679017031805Clb=-19.3m/s t=-52.8C p=-1.0hPa h=-1.0% 403.410 MHz Type=DFM17 ser=22037068 Radiosonde
KD9IXXD220370682022-12-07 12:56:4841.8626-87.78799217031847Clb=-22.2m/s t=-52.9C h=-1.0% p=-1.0hPa 403.410 MHz Type=DFM17 ser=22037068 Radiosonde
KD9PIID220370682022-12-07 12:55:5541.8625-87.80228214332553Clb=-34.5m/s t=-53.2C p=-1.0hPa h=-1.0% 403.410 MHz Type=DFM17 ser=22037068 Radiosonde
KD9IXXD220370682022-12-07 12:55:5241.8624-87.80318115032618Clb=-31.0m/s t=-53.1C h=-1.0% p=-1.0hPa 403.410 MHz Type=DFM17 ser=22037068 Radiosonde
KD9IXXD220370682022-12-07 12:55:0041.8613-87.81859716933160Clb=4.3m/s t=-51.3C h=-1.0% p=-1.0hPa 403.410 MHz Type=DFM17 ser=22037068 Radiosonde
KD9PIID220370682022-12-07 12:54:1241.8601-87.83317714332978Clb=4.0m/s t=-51.8C p=-1.0hPa h=-1.0% 403.410 MHz Type=DFM17 ser=22037068 Radiosonde
KD9IXXD220370682022-12-07 12:54:1041.86-87.83428816732963Clb=9.7m/s t=-51.8C h=-1.0% p=-1.0hPa 403.410 MHz Type=DFM17 ser=22037068 Radiosonde
KD9PIID220370682022-12-07 12:53:2041.8586-87.8498716532756Clb=4.8m/s t=-52.4C p=-1.0hPa h=-1.0% 403.410 MHz Type=DFM17 ser=22037068 Radiosonde
KD9IXXD220370682022-12-07 12:53:1741.8586-87.8498716532756Clb=4.8m/s t=-52.4C h=-1.0% p=-1.0hPa 403.410 MHz Type=DFM17 ser=22037068 Radiosonde
KD9PIID220370682022-12-07 12:52:1741.8576-87.86438418032535Clb=-0.6m/s t=-53.1C p=-1.0hPa h=-1.0% 403.410 MHz Type=DFM17 ser=22037068 Radiosonde
KD9IXXD220370682022-12-07 12:52:1541.8576-87.86498316132531Clb=8.2m/s t=-53.1C h=-1.0% p=-1.0hPa 403.410 MHz Type=DFM17 ser=22037068 Radiosonde
KD9PIID220370682022-12-07 12:51:1641.857-87.88088315432312Clb=13.7m/s t=-53.7C p=-1.0hPa h=-1.0% 403.410 MHz Type=DFM17 ser=22037068 Radiosonde
KD9IXXD220370682022-12-07 12:51:1441.857-87.88088315432312Clb=13.7m/s t=-53.7C h=-1.0% p=-1.0hPa 403.410 MHz Type=DFM17 ser=22037068 Radiosonde
KD9PIID220370682022-12-07 12:50:2441.8568-87.896310317432105Clb=3.4m/s t=-273.0C p=-1.0hPa h=-1.0% 403.410 MHz Type=DFM17 ser=22037068 Radiosonde
KD9IXXD220370682022-12-07 12:50:2141.8569-87.89689616132102Clb=2.3m/s t=-53.6C h=-1.0% p=-1.0hPa 403.410 MHz Type=DFM17 ser=22037068 Radiosonde
KD9IXXD220370682022-12-07 12:49:2341.8567-87.91328414831900Clb=3.8m/s t=-52.8C h=-1.0% p=-1.0hPa 403.410 MHz Type=DFM17 ser=22037068 Radiosonde
KD9IXXD220370682022-12-07 12:48:2441.8568-87.928411312631719Clb=13.5m/s t=-53.6C h=-1.0% p=-1.0hPa 403.410 MHz Type=DFM17 ser=22037068 Radiosonde
KD9IXXD220370682022-12-07 12:47:2341.8575-87.94438416931521Clb=3.0m/s t=-53.0C h=-1.0% p=-1.0hPa 403.410 MHz Type=DFM17 ser=22037068 Radiosonde
KD9PIID220370682022-12-07 12:46:2441.8576-87.95869413531347Clb=8.2m/s t=-54.9C p=-1.0hPa h=-1.0% 403.410 MHz Type=DFM17 ser=22037068 Radiosonde
KD9IXXD220370682022-12-07 12:46:2041.8576-87.95869413531347Clb=8.2m/s t=-54.9C h=-1.0% p=-1.0hPa 403.410 MHz Type=DFM17 ser=22037068 Radiosonde
KD9IXXD220370682022-12-07 12:45:2241.8573-87.9748710231130Clb=5.7m/s t=-54.2C h=-1.0% p=-1.0hPa 403.410 MHz Type=DFM17 ser=22037068 Radiosonde
KD9IXXD220370682022-12-07 12:44:2041.8572-87.98728211330938Clb=10.5m/s t=-54.0C h=-1.0% p=-1.0hPa 403.410 MHz Type=DFM17 ser=22037068 Radiosonde
KD9PIID220370682022-12-07 12:43:4341.858-88.00018613730756Clb=12.8m/s t=-54.7C p=-1.0hPa h=-1.0% 403.410 MHz Type=DFM17 ser=22037068 Radiosonde
KD9IXXD220370682022-12-07 12:43:4041.8579-88.00098411130746Clb=1.9m/s t=-54.6C h=-1.0% p=-1.0hPa 403.410 MHz Type=DFM17 ser=22037068 Radiosonde
KD9IXXD220370682022-12-07 12:43:0941.8583-88.014610316730538Clb=3.4m/s t=-53.4C h=-1.0% p=-1.0hPa 403.410 MHz Type=DFM17 ser=22037068 Radiosonde
KD9IXXD220370682022-12-07 12:42:3141.8576-88.02767913930343Clb=7.6m/s t=-53.8C h=-1.0% p=-1.0hPa 403.410 MHz Type=DFM17 ser=22037068 Radiosonde
KD9PIID220370682022-12-07 12:41:5541.8572-88.04019213530150Clb=14.1m/s t=-54.4C p=-1.0hPa h=-1.0% 403.410 MHz Type=DFM17 ser=22037068 Radiosonde
KD9IXXD220370682022-12-07 12:41:5341.8572-88.04019213530150Clb=14.1m/s t=-54.4C h=-1.0% p=-1.0hPa 403.410 MHz Type=DFM17 ser=22037068 Radiosonde
KD9PIID220370682022-12-07 12:41:2441.8578-88.05089911529983Clb=8.8m/s t=-55.0C p=-1.0hPa h=-1.0% 403.410 MHz Type=DFM17 ser=22037068 Radiosonde
KD9IXXD220370682022-12-07 12:41:2241.8578-88.05178714629959Clb=-6.2m/s t=-55.2C h=-1.0% p=-1.0hPa 403.410 MHz Type=DFM17 ser=22037068 Radiosonde
KD9PIID220370682022-12-07 12:40:5541.8677-88.21681118926038Clb=10.4m/s t=-58.9C p=-1.0hPa h=-1.0% 403.410 MHz Type=DFM17 ser=22037068 Radiosonde
KD9IXXD220370682022-12-07 12:40:5141.868-88.217413210226023Clb=-0.2m/s t=-58.9C h=-1.0% p=-1.0hPa 403.410 MHz Type=DFM17 ser=22037068 Radiosonde
KE0YJJD220370682022-12-07 12:40:3741.8693-88.22191019625928Clb=4.8m/s t=-59.5C h=-1.0% p=-1.0hPa 403.410 MHz Type=DFM17 ser=22037068 Radiosonde
KD9PIID220370682022-12-07 12:39:4641.8702-88.22528010225855Clb=-0.9m/s t=-59.2C p=-1.0hPa h=-1.0% 403.410 MHz Type=DFM17 ser=22037068 Radiosonde
KD9IXXD220370682022-12-07 12:39:4041.8702-88.22581128325849Clb=9.7m/s t=-59.2C h=-1.0% p=-1.0hPa 403.410 MHz Type=DFM17 ser=22037068 Radiosonde
KE0YJJD220370682022-12-07 12:39:1941.8713-88.23031129125755Clb=1.3m/s t=-59.0C h=-1.0% p=-1.0hPa 403.410 MHz Type=DFM17 ser=22037068 Radiosonde
KD9IXXD220370682022-12-07 12:38:2241.8718-88.23481168025657Clb=-0.1m/s t=-59.2C h=-1.0% p=-1.0hPa 403.410 MHz Type=DFM17 ser=22037068 Radiosonde
KE0YJJD220370682022-12-07 12:38:0741.8719-88.24011097825545Clb=-0.6m/s t=-59.2C h=-1.0% p=-1.0hPa 403.410 MHz Type=DFM17 ser=22037068 Radiosonde
KD9PIID220370682022-12-07 12:37:1641.8717-88.2423565925480Clb=-1.6m/s t=-59.5C p=-1.0hPa h=-1.0% 403.410 MHz Type=DFM17 ser=22037068 Radiosonde
KD9IXXD220370682022-12-07 12:37:1241.8716-88.2427888125468Clb=11.7m/s t=-59.4C h=-1.0% p=-1.0hPa 403.410 MHz Type=DFM17 ser=22037068 Radiosonde
KE0YJJD220370682022-12-07 12:36:5641.8707-88.247838525332Clb=-1.9m/s t=-90.7C h=-1.0% p=-1.0hPa 403.410 MHz Type=DFM17 ser=22037068 Radiosonde
KD9PIID220370682022-12-07 12:36:0241.8704-88.2482897425291Clb=0.3m/s t=-59.7C p=-1.0hPa h=-1.0% 403.410 MHz Type=DFM17 ser=22037068 Radiosonde
KD9IXXD220370682022-12-07 12:35:5841.8704-88.2484905025285Clb=8.1m/s t=-59.6C h=-1.0% p=-1.0hPa 403.410 MHz Type=DFM17 ser=22037068 Radiosonde
KE0YJJD220370682022-12-07 12:35:4341.8702-88.2497494425231Clb=1.1m/s t=-59.3C h=-1.0% p=-1.0hPa 403.410 MHz Type=DFM17 ser=22037068 Radiosonde
KD9PIID220370682022-12-07 12:34:4941.8697-88.25361019825098Clb=11.1m/s t=-58.9C p=-1.0hPa h=-1.0% 403.410 MHz Type=DFM17 ser=22037068 Radiosonde
KD9IXXD220370682022-12-07 12:34:4441.8698-88.2541945625088Clb=8.8m/s t=-58.8C h=-1.0% p=-1.0hPa 403.410 MHz Type=DFM17 ser=22037068 Radiosonde
KE0YJJD220370682022-12-07 12:34:2741.8697-88.25621188125008Clb=0.8m/s t=-58.3C h=-1.0% p=-1.0hPa 403.410 MHz Type=DFM17 ser=22037068 Radiosonde
KD9PIID220370682022-12-07 12:33:3441.87-88.25941583124892Clb=2.7m/s t=-60.4C p=-1.0hPa h=-1.0% 403.410 MHz Type=DFM17 ser=22037068 Radiosonde
KD9IXXD220370682022-12-07 12:33:2941.87-88.25941583124892Clb=2.7m/s t=-60.4C h=-1.0% p=-1.0hPa 403.410 MHz Type=DFM17 ser=22037068 Radiosonde
KE0YJJD220370682022-12-07 12:33:1441.8699-88.2608855624839Clb=4.0m/s t=-60.8C h=-1.0% p=-1.0hPa 403.410 MHz Type=DFM17 ser=22037068 Radiosonde
KD9PIID220370682022-12-07 12:32:2441.8701-88.2634754324724Clb=5.5m/s t=-61.9C p=-1.0hPa h=-1.0% 403.410 MHz Type=DFM17 ser=22037068 Radiosonde
KD9IXXD220370682022-12-07 12:32:1941.8702-88.26361615424706Clb=4.7m/s t=-61.9C h=-1.0% p=-1.0hPa 403.410 MHz Type=DFM17 ser=22037068 Radiosonde
KE0YJJD220370682022-12-07 12:32:0441.8707-88.2674684424573Clb=2.4m/s t=-62.3C h=-1.0% p=-1.0hPa 403.410 MHz Type=DFM17 ser=22037068 Radiosonde
KD9PIID220370682022-12-07 12:31:0741.8709-88.2681017424548Clb=7.3m/s t=-62.2C p=-1.0hPa h=-1.0% 403.410 MHz Type=DFM17 ser=22037068 Radiosonde
KD9IXXD220370682022-12-07 12:31:0241.8709-88.2684663724534Clb=0.9m/s t=-62.1C h=-1.0% p=-1.0hPa 403.410 MHz Type=DFM17 ser=22037068 Radiosonde
KE0YJJD220370682022-12-07 12:30:4641.8713-88.27091377624442Clb=10.8m/s t=-61.6C h=-1.0% p=-1.0hPa 403.410 MHz Type=DFM17 ser=22037068 Radiosonde
KD9PIID220370682022-12-07 12:29:5241.8717-88.27341366524366Clb=-4.9m/s t=-61.5C p=-1.0hPa h=-1.0% 403.410 MHz Type=DFM17 ser=22037068 Radiosonde
KD9IXXD220370682022-12-07 12:29:4741.8719-88.2738966924359Clb=11.9m/s t=-61.5C h=-1.0% p=-1.0hPa 403.410 MHz Type=DFM17 ser=22037068 Radiosonde
KE0YJJD220370682022-12-07 12:29:2841.8727-88.27941325224209Clb=-0.6m/s t=-60.8C h=-1.0% p=-1.0hPa 403.410 MHz Type=DFM17 ser=22037068 Radiosonde
KD9PIID220370682022-12-07 12:28:3741.8728-88.28051009324195Clb=4.4m/s t=-60.6C p=-1.0hPa h=-1.0% 403.410 MHz Type=DFM17 ser=22037068 Radiosonde
KD9IXXD220370682022-12-07 12:28:3341.873-88.2811455924178Clb=3.3m/s t=-60.5C h=-1.0% p=-1.0hPa 403.410 MHz Type=DFM17 ser=22037068 Radiosonde
KE0YJJD220370682022-12-07 12:28:1641.8738-88.2856948724086Clb=3.6m/s t=-59.9C h=-1.0% p=-1.0hPa 403.410 MHz Type=DFM17 ser=22037068 Radiosonde
KD9PIID220370682022-12-07 12:27:1641.8746-88.28851007024022Clb=9.2m/s t=-59.5C p=-1.0hPa h=-1.0% 403.410 MHz Type=DFM17 ser=22037068 Radiosonde
KD9IXXD220370682022-12-07 12:27:1241.8745-88.28919410024009Clb=1.7m/s t=-59.5C h=-1.0% p=-1.0hPa 403.410 MHz Type=DFM17 ser=22037068 Radiosonde
KE0YJJD220370682022-12-07 12:26:5541.8749-88.29110210023967Clb=8.1m/s t=-273.0C h=-1.0% p=-1.0hPa 403.410 MHz Type=DFM17 ser=22037068 Radiosonde
KD9PIID220370682022-12-07 12:25:5841.8757-88.2975788923834Clb=11.7m/s t=-59.0C p=-1.0hPa h=-1.0% 403.410 MHz Type=DFM17 ser=22037068 Radiosonde
KD9IXXD220370682022-12-07 12:25:5541.8757-88.298410510923805Clb=10.1m/s t=-59.0C h=-1.0% p=-1.0hPa 403.410 MHz Type=DFM17 ser=22037068 Radiosonde
KE0YJJD220370682022-12-07 12:25:4041.8755-88.3015996323748Clb=5.8m/s t=-59.5C h=-1.0% p=-1.0hPa 403.410 MHz Type=DFM17 ser=22037068 Radiosonde
KD9PIID220370682022-12-07 12:24:4141.8753-88.30577910723666Clb=-0.2m/s t=-59.1C p=-1.0hPa h=-1.0% 403.410 MHz Type=DFM17 ser=22037068 Radiosonde
KD9IXXD220370682022-12-07 12:24:3641.8752-88.3063655223653Clb=10.8m/s t=-59.1C h=-1.0% p=-1.0hPa 403.410 MHz Type=DFM17 ser=22037068 Radiosonde
KE0YJJD220370682022-12-07 12:24:1941.8744-88.31121083323537Clb=8.3m/s t=-59.2C h=-1.0% p=-1.0hPa 403.410 MHz Type=DFM17 ser=22037068 Radiosonde
KD9PIID220370682022-12-07 12:23:5341.874-88.3132589823479Clb=10.3m/s t=-59.1C p=-1.0hPa h=-1.0% 403.410 MHz Type=DFM17 ser=22037068 Radiosonde
KE0YJJD220370682022-12-07 12:23:5241.8727-88.3168245223359Clb=-0.2m/s t=-59.3C h=-1.0% p=-1.0hPa 403.410 MHz Type=DFM17 ser=22037068 Radiosonde
KD9PIID220370682022-12-07 12:23:2341.8722-88.3189203323288Clb=8.1m/s t=-58.9C p=-1.0hPa h=-1.0% 403.410 MHz Type=DFM17 ser=22037068 Radiosonde
KD9IXXD220370682022-12-07 12:23:2041.8721-88.3193937623271Clb=13.1m/s t=-58.8C h=-1.0% p=-1.0hPa 403.410 MHz Type=DFM17 ser=22037068 Radiosonde
KE0YJJD220370682022-12-07 12:23:0841.8718-88.32111383723208Clb=1.2m/s t=-59.1C h=-1.0% p=-1.0hPa 403.410 MHz Type=DFM17 ser=22037068 Radiosonde
KD9PIID220370682022-12-07 12:22:5141.8718-88.32381333523113Clb=8.7m/s t=-60.5C p=-1.0hPa h=-1.0% 403.410 MHz Type=DFM17 ser=22037068 Radiosonde
KE0YJJD220370682022-12-07 12:22:5041.872-88.3257515223058Clb=-120.6m/s t=-60.4C h=-1.0% p=-1.0hPa 403.410 MHz Type=DFM17 ser=22037068 Radiosonde
KD9PIID220370682022-12-07 12:22:3741.8722-88.3298937622942Clb=5.2m/s t=-59.9C p=-1.0hPa h=-1.0% 403.410 MHz Type=DFM17 ser=22037068 Radiosonde
KD9IXXD220370682022-12-07 12:22:3641.8722-88.3301293322927Clb=2.8m/s t=-59.8C h=-1.0% p=-1.0hPa 403.410 MHz Type=DFM17 ser=22037068 Radiosonde
KE0YJJD220370682022-12-07 12:22:2041.8721-88.33251092622849Clb=0.5m/s t=-59.3C h=-1.0% p=-1.0hPa 403.410 MHz Type=DFM17 ser=22037068 Radiosonde
KD9PIID220370682022-12-07 12:21:4241.8584-88.4689748019646Clb=3.8m/s t=-64.9C p=-1.0hPa h=-1.0% 403.410 MHz Type=DFM17 ser=22037068 Radiosonde
KD9IXXD220370682022-12-07 12:21:4041.8584-88.4692889119639Clb=8.1m/s t=-64.8C h=-1.0% p=-1.0hPa 403.410 MHz Type=DFM17 ser=22037068 Radiosonde
KD9PIID220370682022-12-07 12:20:3841.8576-88.47929711919491Clb=7.4m/s t=-66.0C p=-1.0hPa h=-1.0% 403.410 MHz Type=DFM17 ser=22037068 Radiosonde
KD9IXXD220370682022-12-07 12:20:3541.8576-88.47969810019486Clb=1.7m/s t=-66.1C h=-1.0% p=-1.0hPa 403.410 MHz Type=DFM17 ser=22037068 Radiosonde
KD9PIID220370682022-12-07 12:19:2941.8567-88.4894847619327Clb=5.1m/s t=-65.5C p=-1.0hPa h=-1.0% 403.410 MHz Type=DFM17 ser=22037068 Radiosonde
KD9IXXD220370682022-12-07 12:19:2441.8566-88.4896679419320Clb=8.2m/s t=-65.5C h=-1.0% p=-1.0hPa 403.410 MHz Type=DFM17 ser=22037068 Radiosonde
KD9PIID220370682022-12-07 12:18:1741.8553-88.4997310419167Clb=3.9m/s t=-64.3C p=-1.0hPa h=-1.0% 403.410 MHz Type=DFM17 ser=22037068 Radiosonde
KD9IXXD220370682022-12-07 12:18:1441.8553-88.4996937419156Clb=1.7m/s t=-64.2C h=-1.0% p=-1.0hPa 403.410 MHz Type=DFM17 ser=22037068 Radiosonde
KD9PIID220370682022-12-07 12:17:1641.8543-88.5079948019005Clb=3.7m/s t=-63.1C p=-1.0hPa h=-1.0% 403.410 MHz Type=DFM17 ser=22037068 Radiosonde
KD9IXXD220370682022-12-07 12:17:1341.8543-88.5082828918999Clb=7.4m/s t=-63.1C h=-1.0% p=-1.0hPa 403.410 MHz Type=DFM17 ser=22037068 Radiosonde
KE0YJJD220370682022-12-07 12:16:5941.8539-88.5107936718950Clb=5.5m/s t=-62.8C h=-1.0% p=-1.0hPa 403.410 MHz Type=DFM17 ser=22037068 Radiosonde
KD9PIID220370682022-12-07 12:16:1841.8536-88.51641008118833Clb=7.1m/s t=-62.5C p=-1.0hPa h=-1.0% 403.410 MHz Type=DFM17 ser=22037068 Radiosonde
KD9IXXD220370682022-12-07 12:16:1641.8536-88.5168767218822Clb=7.0m/s t=-62.5C h=-1.0% p=-1.0hPa 403.410 MHz Type=DFM17 ser=22037068 Radiosonde
KE0YJJD220370682022-12-07 12:16:0341.8533-88.5199888018763Clb=4.7m/s t=-62.4C h=-1.0% p=-1.0hPa 403.410 MHz Type=DFM17 ser=22037068 Radiosonde
KD9PIID220370682022-12-07 12:15:2341.8526-88.5251797418670Clb=4.2m/s t=-61.8C p=-1.0hPa h=-1.0% 403.410 MHz Type=DFM17 ser=22037068 Radiosonde
KD9IXXD220370682022-12-07 12:15:2041.8524-88.52576510918659Clb=2.5m/s t=-61.8C h=-1.0% p=-1.0hPa 403.410 MHz Type=DFM17 ser=22037068 Radiosonde
KE0YJJD220370682022-12-07 12:15:0841.852-88.5277728918623Clb=6.2m/s t=-62.1C h=-1.0% p=-1.0hPa 403.410 MHz Type=DFM17 ser=22037068 Radiosonde
KD9PIID220370682022-12-07 12:14:2341.8508-88.5352979318500Clb=4.3m/s t=-61.3C p=-1.0hPa h=-1.0% 403.410 MHz Type=DFM17 ser=22037068 Radiosonde
KD9IXXD220370682022-12-07 12:14:2041.8507-88.5358739818489Clb=8.8m/s t=-61.2C h=-1.0% p=-1.0hPa 403.410 MHz Type=DFM17 ser=22037068 Radiosonde
KE0YJJD220370682022-12-07 12:14:0841.8503-88.53857511318450Clb=4.0m/s t=-61.0C h=-1.0% p=-1.0hPa 403.410 MHz Type=DFM17 ser=22037068 Radiosonde
KD9PIID220370682022-12-07 12:13:2341.8494-88.54546910218345Clb=7.3m/s t=-60.3C p=-1.0hPa h=-1.0% 403.410 MHz Type=DFM17 ser=22037068 Radiosonde
KD9IXXD220370682022-12-07 12:13:1941.8493-88.54617710618336Clb=6.3m/s t=-60.2C h=-1.0% p=-1.0hPa 403.410 MHz Type=DFM17 ser=22037068 Radiosonde
KE0YJJD220370682022-12-07 12:13:0341.8489-88.5498212018293Clb=4.6m/s t=-60.1C h=-1.0% p=-1.0hPa 403.410 MHz Type=DFM17 ser=22037068 Radiosonde
KD9IXXD220370682022-12-07 12:12:0741.8476-88.55777212818178Clb=3.1m/s t=-60.7C h=-1.0% p=-1.0hPa 403.410 MHz Type=DFM17 ser=22037068 Radiosonde
KE0YJJD220370682022-12-07 12:11:5141.8473-88.56197711918127Clb=4.4m/s t=-60.8C h=-1.0% p=-1.0hPa 403.410 MHz Type=DFM17 ser=22037068 Radiosonde
KD9PIID220370682022-12-07 12:11:0141.8467-88.56979013918035Clb=5.3m/s t=-60.8C p=-1.0hPa h=-1.0% 403.410 MHz Type=DFM17 ser=22037068 Radiosonde
KD9IXXD220370682022-12-07 12:10:5841.8466-88.57057812218025Clb=3.1m/s t=-60.7C h=-1.0% p=-1.0hPa 403.410 MHz Type=DFM17 ser=22037068 Radiosonde
KE0YJJD220370682022-12-07 12:10:4441.8465-88.57348913117992Clb=6.9m/s t=-60.6C h=-1.0% p=-1.0hPa 403.410 MHz Type=DFM17 ser=22037068 Radiosonde
KD9PIID220370682022-12-07 12:09:4741.8461-88.5838613717881Clb=6.8m/s t=-60.7C p=-1.0hPa h=-1.0% 403.410 MHz Type=DFM17 ser=22037068 Radiosonde
KD9IXXD220370682022-12-07 12:09:4541.8461-88.58398812617872Clb=5.2m/s t=-60.7C h=-1.0% p=-1.0hPa 403.410 MHz Type=DFM17 ser=22037068 Radiosonde
KE0YJJD220370682022-12-07 12:09:3041.8458-88.58697013517836Clb=3.0m/s t=-60.9C h=-1.0% p=-1.0hPa 403.410 MHz Type=DFM17 ser=22037068 Radiosonde
KD9PIID220370682022-12-07 12:08:3841.8444-88.5978413517727Clb=6.8m/s t=-62.3C p=-1.0hPa h=-1.0% 403.410 MHz Type=DFM17 ser=22037068 Radiosonde
KD9IXXD220370682022-12-07 12:08:3541.8444-88.59788313017720Clb=4.8m/s t=-62.5C h=-1.0% p=-1.0hPa 403.410 MHz Type=DFM17 ser=22037068 Radiosonde
KE0YJJD220370682022-12-07 12:08:2141.8441-88.60058313317693Clb=5.0m/s t=-62.6C h=-1.0% p=-1.0hPa 403.410 MHz Type=DFM17 ser=22037068 Radiosonde
KD9PIID220370682022-12-07 12:07:3041.8426-88.61097112817588Clb=2.3m/s t=-64.7C p=-1.0hPa h=-1.0% 403.410 MHz Type=DFM17 ser=22037068 Radiosonde
KD9IXXD220370682022-12-07 12:07:2741.8425-88.61137712217585Clb=3.8m/s t=-64.9C h=-1.0% p=-1.0hPa 403.410 MHz Type=DFM17 ser=22037068 Radiosonde
KE0YJJD220370682022-12-07 12:07:1341.8421-88.61458915217551Clb=5.2m/s t=-66.0C h=-1.0% p=-1.0hPa 403.410 MHz Type=DFM17 ser=22037068 Radiosonde
KD9PIID220370682022-12-07 12:06:2541.8406-88.62478713317440Clb=3.4m/s t=-66.9C p=-1.0hPa h=-1.0% 403.410 MHz Type=DFM17 ser=22037068 Radiosonde
KD9IXXD220370682022-12-07 12:06:2341.8406-88.62528312417436Clb=4.4m/s t=-66.9C h=-1.0% p=-1.0hPa 403.410 MHz Type=DFM17 ser=22037068 Radiosonde
KE0YJJD220370682022-12-07 12:06:0841.84-88.62887413917398Clb=5.3m/s t=-67.1C h=-1.0% p=-1.0hPa 403.410 MHz Type=DFM17 ser=22037068 Radiosonde
KD9PIID220370682022-12-07 12:05:1941.8384-88.63847613117296Clb=6.2m/s t=-66.5C p=-1.0hPa h=-1.0% 403.410 MHz Type=DFM17 ser=22037068 Radiosonde
KD9IXXD220370682022-12-07 12:05:1641.8384-88.63888314817290Clb=4.9m/s t=-66.5C h=-1.0% p=-1.0hPa 403.410 MHz Type=DFM17 ser=22037068 Radiosonde
KE0YJJD220370682022-12-07 12:05:0341.8379-88.64197814117257Clb=4.7m/s t=-66.3C h=-1.0% p=-1.0hPa 403.410 MHz Type=DFM17 ser=22037068 Radiosonde
KD9PIID220370682022-12-07 12:04:1341.8359-88.65226713517145Clb=3.6m/s t=-66.1C p=-1.0hPa h=-1.0% 403.410 MHz Type=DFM17 ser=22037068 Radiosonde
KD9IXXD220370682022-12-07 12:04:1041.8359-88.65226713517145Clb=3.6m/s t=-66.1C h=-1.0% p=-1.0hPa 403.410 MHz Type=DFM17 ser=22037068 Radiosonde
KE0YJJD220370682022-12-07 12:03:5941.8352-88.65527613917109Clb=5.5m/s t=-66.5C h=-1.0% p=-1.0hPa 403.410 MHz Type=DFM17 ser=22037068 Radiosonde
KD9PIID220370682022-12-07 12:03:4441.833-88.66478012616994Clb=3.6m/s t=-65.9C p=-1.0hPa h=-1.0% 403.410 MHz Type=DFM17 ser=22037068 Radiosonde
KD9IXXD220370682022-12-07 12:03:4341.8327-88.6667112816980Clb=4.0m/s t=-65.7C h=-1.0% p=-1.0hPa 403.410 MHz Type=DFM17 ser=22037068 Radiosonde
KE0YJJD220370682022-12-07 12:03:3441.8323-88.6687013316955Clb=3.5m/s t=-65.5C h=-1.0% p=-1.0hPa 403.410 MHz Type=DFM17 ser=22037068 Radiosonde
KD9PIID220370682022-12-07 12:03:1041.8308-88.67758613516841Clb=1.4m/s t=-65.7C p=-1.0hPa h=-1.0% 403.410 MHz Type=DFM17 ser=22037068 Radiosonde
KD9IXXD220370682022-12-07 12:03:0841.8307-88.6788112616837Clb=6.3m/s t=-65.7C h=-1.0% p=-1.0hPa 403.410 MHz Type=DFM17 ser=22037068 Radiosonde
KE0YJJD220370682022-12-07 12:02:5741.8304-88.68087211716799Clb=2.6m/s t=-65.8C h=-1.0% p=-1.0hPa 403.410 MHz Type=DFM17 ser=22037068 Radiosonde
KE0YJJD220370682022-12-07 12:02:5341.8214-88.73997715416132Clb=5.5m/s t=-63.7C h=-1.0% p=-1.0hPa 403.410 MHz Type=DFM17 ser=22037068 Radiosonde
KD9PIID220370682022-12-07 12:02:5141.82-88.74687314116050Clb=6.2m/s t=-64.2C p=-1.0hPa h=-1.0% 403.410 MHz Type=DFM17 ser=22037068 Radiosonde
KE0YJJD220370682022-12-07 12:02:5041.819-88.75227715415986Clb=4.6m/s t=-64.5C h=-1.0% p=-1.0hPa 403.410 MHz Type=DFM17 ser=22037068 Radiosonde
KD9PIID220370682022-12-07 12:02:4541.8182-88.76249413715881Clb=3.3m/s t=-63.6C p=-1.0hPa h=-1.0% 403.410 MHz Type=DFM17 ser=22037068 Radiosonde
KE0YJJD220370682022-12-07 12:02:3741.8179-88.76637914615839Clb=3.4m/s t=-63.3C h=-1.0% p=-1.0hPa 403.410 MHz Type=DFM17 ser=22037068 Radiosonde
KD9PIID220370682022-12-07 12:02:0241.8174-88.77779116715732Clb=7.0m/s t=-63.0C p=-1.0hPa h=-1.0% 403.410 MHz Type=DFM17 ser=22037068 Radiosonde
KE0YJJD220370682022-12-07 12:02:0041.8171-88.78368916715681Clb=4.9m/s t=-63.2C h=-1.0% p=-1.0hPa 403.410 MHz Type=DFM17 ser=22037068 Radiosonde
KD9PIID220370682022-12-07 12:01:5841.816-88.79498717215582Clb=4.9m/s t=-63.1C p=-1.0hPa h=-1.0% 403.410 MHz Type=DFM17 ser=22037068 Radiosonde
KD9IXXD220370682022-12-07 12:01:5741.8159-88.7968014815573Clb=6.4m/s t=-63.0C h=-1.0% p=-1.0hPa 403.410 MHz Type=DFM17 ser=22037068 Radiosonde
KE0YJJD220370682022-12-07 12:01:5641.8155-88.7997314815545Clb=5.5m/s t=-62.8C h=-1.0% p=-1.0hPa 403.410 MHz Type=DFM17 ser=22037068 Radiosonde
KD9PIID220370682022-12-07 12:01:5341.8136-88.81066613315441Clb=3.7m/s t=-63.0C p=-1.0hPa h=-1.0% 403.410 MHz Type=DFM17 ser=22037068 Radiosonde
KD9IXXD220370682022-12-07 12:01:5241.8135-88.81117413715438Clb=3.6m/s t=-63.0C h=-1.0% p=-1.0hPa 403.410 MHz Type=DFM17 ser=22037068 Radiosonde
KD9PIID220370682022-12-07 12:01:4941.8106-88.82577715615307Clb=4.8m/s t=-63.6C p=-1.0hPa h=-1.0% 403.410 MHz Type=DFM17 ser=22037068 Radiosonde
KD9PIID220370682022-12-07 12:01:4741.8075-88.84127915915173Clb=2.8m/s t=-62.8C p=-1.0hPa h=-1.0% 403.410 MHz Type=DFM17 ser=22037068 Radiosonde
KD9IXXD220370682022-12-07 12:01:4041.8045-88.85757817415030Clb=4.9m/s t=-62.2C h=-1.0% p=-1.0hPa 403.410 MHz Type=DFM17 ser=22037068 Radiosonde
KD9PIID220370682022-12-07 12:00:5241.802-88.87288016714895Clb=5.9m/s t=-61.5C p=-1.0hPa h=-1.0% 403.410 MHz Type=DFM17 ser=22037068 Radiosonde
KD9IXXD220370682022-12-07 12:00:5041.802-88.87338816114889Clb=5.5m/s t=-61.5C h=-1.0% p=-1.0hPa 403.410 MHz Type=DFM17 ser=22037068 Radiosonde
KD9PIID220370682022-12-07 11:59:4941.8005-88.88918617414751Clb=6.0m/s t=-61.2C p=-1.0hPa h=-1.0% 403.410 MHz Type=DFM17 ser=22037068 Radiosonde
KD9IXXD220370682022-12-07 11:59:4741.8005-88.88978517614747Clb=2.6m/s t=-61.1C h=-1.0% p=-1.0hPa 403.410 MHz Type=DFM17 ser=22037068 Radiosonde
KD9PIID220370682022-12-07 11:58:4341.7991-88.90628017014608Clb=5.4m/s t=-61.3C p=-1.0hPa h=-1.0% 403.410 MHz Type=DFM17 ser=22037068 Radiosonde
KD9IXXD220370682022-12-07 11:58:4041.7991-88.90688818314603Clb=4.8m/s t=-61.3C h=-1.0% p=-1.0hPa 403.410 MHz Type=DFM17 ser=22037068 Radiosonde
KD9PIID220370682022-12-07 11:57:3441.798-88.92388115414465Clb=4.2m/s t=-61.5C p=-1.0hPa h=-1.0% 403.410 MHz Type=DFM17 ser=22037068 Radiosonde
KD9IXXD220370682022-12-07 11:57:3041.7979-88.92488717414456Clb=5.8m/s t=-61.5C h=-1.0% p=-1.0hPa 403.410 MHz Type=DFM17 ser=22037068 Radiosonde
KD9PIID220370682022-12-07 11:56:2441.7974-88.94238718514320Clb=5.9m/s t=-61.9C p=-1.0hPa h=-1.0% 403.410 MHz Type=DFM17 ser=22037068 Radiosonde
KD9IXXD220370682022-12-07 11:56:2141.7974-88.94238718514320Clb=5.9m/s t=-61.9C h=-1.0% p=-1.0hPa 403.410 MHz Type=DFM17 ser=22037068 Radiosonde
KD9PIID220370682022-12-07 11:55:2441.7975-88.96039516514184Clb=2.1m/s t=-61.2C p=-1.0hPa h=-1.0% 403.410 MHz Type=DFM17 ser=22037068 Radiosonde
KD9IXXD220370682022-12-07 11:55:2141.7975-88.96168820014175Clb=6.7m/s t=-61.2C h=-1.0% p=-1.0hPa 403.410 MHz Type=DFM17 ser=22037068 Radiosonde
KD9PIID220370682022-12-07 11:54:2941.7978-88.97999419814040Clb=5.8m/s t=-60.3C p=-1.0hPa h=-1.0% 403.410 MHz Type=DFM17 ser=22037068 Radiosonde
KD9IXXD220370682022-12-07 11:54:2541.7979-88.98119217614030Clb=3.2m/s t=-60.3C h=-1.0% p=-1.0hPa 403.410 MHz Type=DFM17 ser=22037068 Radiosonde
KD9PIID220370682022-12-07 11:53:2641.7983-89.00019120413892Clb=5.8m/s t=-59.7C p=-1.0hPa h=-1.0% 403.410 MHz Type=DFM17 ser=22037068 Radiosonde
KD9IXXD220370682022-12-07 11:53:2341.7984-89.00149518913882Clb=4.9m/s t=-59.6C h=-1.0% p=-1.0hPa 403.410 MHz Type=DFM17 ser=22037068 Radiosonde
KD9PIID220370682022-12-07 11:52:2441.7989-89.02119721913734Clb=5.1m/s t=-59.4C p=-1.0hPa h=-1.0% 403.410 MHz Type=DFM17 ser=22037068 Radiosonde
KD9IXXD220370682022-12-07 11:52:2141.799-89.02259020713723Clb=6.5m/s t=-59.4C h=-1.0% p=-1.0hPa 403.410 MHz Type=DFM17 ser=22037068 Radiosonde
KD9PIID220370682022-12-07 11:51:4241.7981-89.04398222613569Clb=3.5m/s t=-59.0C p=-1.0hPa h=-1.0% 403.410 MHz Type=DFM17 ser=22037068 Radiosonde
KD9IXXD220370682022-12-07 11:51:4141.798-89.04468321513565Clb=3.8m/s t=-59.0C h=-1.0% p=-1.0hPa 403.410 MHz Type=DFM17 ser=22037068 Radiosonde
KD9IXXD220370682022-12-07 11:51:1741.7875-89.2398726112391Clb=2.4m/s t=-58.1C h=-1.0% p=-1.0hPa 403.410 MHz Type=DFM17 ser=22037068 Radiosonde
KD9IXXD220370682022-12-07 11:51:1541.785-89.26468325212262Clb=6.2m/s t=-58.4C h=-1.0% p=-1.0hPa 403.410 MHz Type=DFM17 ser=22037068 Radiosonde
KD9IXXD220370682022-12-07 11:51:1341.783-89.29188525612120Clb=3.3m/s t=-57.5C h=-1.0% p=-1.0hPa 403.410 MHz Type=DFM17 ser=22037068 Radiosonde
KD9IXXD220370682022-12-07 11:51:0241.7813-89.31778724811984Clb=2.9m/s t=-56.6C h=-1.0% p=-1.0hPa 403.410 MHz Type=DFM17 ser=22037068 Radiosonde
KD9IXXD220370682022-12-07 11:50:0941.779-89.34687929111825Clb=4.2m/s t=-55.6C h=-1.0% p=-1.0hPa 403.410 MHz Type=DFM17 ser=22037068 Radiosonde
KD9IXXD220370682022-12-07 11:49:1241.7762-89.37358227011692Clb=4.0m/s t=-55.4C h=-1.0% p=-1.0hPa 403.410 MHz Type=DFM17 ser=22037068 Radiosonde
KD9IXXD220370682022-12-07 11:48:1741.7729-89.40148127011550Clb=3.5m/s t=-55.7C h=-1.0% p=-1.0hPa 403.410 MHz Type=DFM17 ser=22037068 Radiosonde
KD9IXXD220370682022-12-07 11:47:1741.7695-89.4298028711410Clb=3.1m/s t=-54.9C h=-1.0% p=-1.0hPa 403.410 MHz Type=DFM17 ser=22037068 Radiosonde
KD9IXXD220370682022-12-07 11:46:1841.7662-89.45688326711268Clb=5.3m/s t=-54.2C h=-1.0% p=-1.0hPa 403.410 MHz Type=DFM17 ser=22037068 Radiosonde
KD9IXXD220370682022-12-07 11:45:2141.7631-89.48568027411126Clb=6.3m/s t=-53.7C h=-1.0% p=-1.0hPa 403.410 MHz Type=DFM17 ser=22037068 Radiosonde
KD9IXXD220370682022-12-07 11:44:2141.7605-89.51297927010994Clb=5.1m/s t=-53.2C h=-1.0% p=-1.0hPa 403.410 MHz Type=DFM17 ser=22037068 Radiosonde
KD9IXXD220370682022-12-07 11:43:5841.7577-89.54168028510854Clb=4.7m/s t=-52.6C h=-1.0% p=-1.0hPa 403.410 MHz Type=DFM17 ser=22037068 Radiosonde
KD9IXXD220370682022-12-07 11:43:4941.7552-89.57128628510711Clb=2.2m/s t=-52.5C h=-1.0% p=-1.0hPa 403.410 MHz Type=DFM17 ser=22037068 Radiosonde
KD9IXXD220370682022-12-07 11:43:3441.7529-89.60188129610573Clb=3.7m/s t=-51.7C h=-1.0% p=-1.0hPa 403.410 MHz Type=DFM17 ser=22037068 Radiosonde
KD9IXXD220370682022-12-07 11:43:0441.7502-89.63398330210431Clb=4.5m/s t=-50.7C h=-1.0% p=-1.0hPa 403.410 MHz Type=DFM17 ser=22037068 Radiosonde
KD9IXXD220370682022-12-07 11:42:3741.7476-89.66378230210292Clb=4.2m/s t=-49.9C h=-1.0% p=-1.0hPa 403.410 MHz Type=DFM17 ser=22037068 Radiosonde
KD9IXXD220370682022-12-07 11:41:4441.7444-89.6948129410150Clb=5.9m/s t=-49.2C h=-1.0% p=-1.0hPa 403.410 MHz Type=DFM17 ser=22037068 Radiosonde
KD9IXXD220370682022-12-07 11:40:5141.7407-89.72388129310011Clb=3.4m/s t=-48.7C h=-1.0% p=-1.0hPa 403.410 MHz Type=DFM17 ser=22037068 Radiosonde
KD9IXXD220370682022-12-07 11:40:0041.7366-89.7528812769864Clb=6.3m/s t=-48.0C h=-1.0% p=-1.0hPa 403.410 MHz Type=DFM17 ser=22037068 Radiosonde
KD9IXXD220370682022-12-07 11:39:1541.7326-89.7842812659706Clb=5.3m/s t=-47.5C h=-1.0% p=-1.0hPa 403.410 MHz Type=DFM17 ser=22037068 Radiosonde
KD9IXXD220370682022-12-07 11:38:1741.7286-89.8195842709522Clb=4.9m/s t=-46.1C h=-1.0% p=-1.0hPa 403.410 MHz Type=DFM17 ser=22037068 Radiosonde
KD9IXXD220370682022-12-07 11:37:1341.7264-89.8388812639424Clb=5.4m/s t=-45.6C h=-1.0% p=-1.0hPa 403.410 MHz Type=DFM17 ser=22037068 Radiosonde
KD9IXXD220370682022-12-07 11:36:1641.7236-89.8643832399285Clb=4.4m/s t=-45.2C h=-1.0% p=-1.0hPa 403.410 MHz Type=DFM17 ser=22037068 Radiosonde
KD9IXXD220370682022-12-07 11:35:3741.721-89.8893852619149Clb=2.6m/s t=-44.2C h=-1.0% p=-1.0hPa 403.410 MHz Type=DFM17 ser=22037068 Radiosonde
KD9IXXD220370682022-12-07 11:35:0741.7185-89.9145822469018Clb=5.5m/s t=-43.2C h=-1.0% p=-1.0hPa 403.410 MHz Type=DFM17 ser=22037068 Radiosonde
KD9IXXD220370682022-12-07 11:34:4241.7151-89.9403802358860Clb=3.4m/s t=-42.3C h=-1.0% p=-1.0hPa 403.410 MHz Type=DFM17 ser=22037068 Radiosonde
KD9IXXD220370682022-12-07 11:34:4141.7109-89.9684772578713Clb=4.0m/s t=-41.3C h=-1.0% p=-1.0hPa 403.410 MHz Type=DFM17 ser=22037068 Radiosonde